createdAt,value
2022-12-29T00:01:48.522Z,4.78
2022-12-29T00:04:49.825Z,5.68
2022-12-29T00:07:51.135Z,5.60
2022-12-29T00:10:52.422Z,4.85
2022-12-29T00:13:53.756Z,5.60
2022-12-29T00:16:55.073Z,5.10
2022-12-29T00:19:56.463Z,5.85
2022-12-29T00:22:57.787Z,5.00
2022-12-29T00:25:59.101Z,5.75
2022-12-29T00:29:00.425Z,5.17
2022-12-29T00:32:01.732Z,5.13
2022-12-29T00:35:03.045Z,5.45
2022-12-29T00:38:04.337Z,5.45
2022-12-29T00:41:05.633Z,4.78
2022-12-29T00:44:06.928Z,4.80
2022-12-29T00:47:08.635Z,5.63
2022-12-29T00:50:10.041Z,5.78
2022-12-29T00:53:11.447Z,5.55
2022-12-29T00:56:12.743Z,5.05
2022-12-29T00:59:14.051Z,4.67
2022-12-29T01:02:15.614Z,5.60
2022-12-29T01:05:17.038Z,5.43
2022-12-29T01:08:19.695Z,5.03
2022-12-29T01:11:20.994Z,5.70
2022-12-29T01:14:22.284Z,5.70
2022-12-29T01:17:23.604Z,5.15
2022-12-29T01:20:24.919Z,6.05
2022-12-29T01:23:26.233Z,5.15
2022-12-29T01:26:27.542Z,5.10
2022-12-29T01:29:28.842Z,4.97
2022-12-29T01:32:30.162Z,5.32
2022-12-29T01:35:31.457Z,5.10
2022-12-29T01:38:32.770Z,5.60
2022-12-29T01:41:35.079Z,5.03
2022-12-29T01:44:36.390Z,5.40
2022-12-29T01:47:37.660Z,5.35
2022-12-29T01:50:38.952Z,5.00
2022-12-29T01:53:40.240Z,5.55
2022-12-29T01:56:41.538Z,4.95
2022-12-29T01:59:42.818Z,5.37
2022-12-29T02:02:44.283Z,5.03
2022-12-29T02:05:45.716Z,5.10
2022-12-29T02:08:47.022Z,5.32
2022-12-29T02:11:48.341Z,4.97
2022-12-29T02:14:49.639Z,4.77
2022-12-29T02:17:50.953Z,4.95
2022-12-29T02:20:52.260Z,5.05
2022-12-29T02:23:53.603Z,4.75
2022-12-29T02:26:54.892Z,5.57
2022-12-29T02:29:56.191Z,4.60
2022-12-29T02:32:57.492Z,5.35
2022-12-29T02:35:58.822Z,4.85
2022-12-29T02:39:00.147Z,4.85
2022-12-29T02:42:01.470Z,5.03
2022-12-29T02:45:02.760Z,4.87
2022-12-29T02:48:05.277Z,5.20
2022-12-29T02:51:06.589Z,4.90
2022-12-29T02:54:07.879Z,5.10
2022-12-29T02:57:09.193Z,4.85
2022-12-29T03:00:10.476Z,4.40
2022-12-29T03:03:11.797Z,4.75
2022-12-29T03:06:13.175Z,4.95
2022-12-29T03:09:18.967Z,4.68
2022-12-29T03:12:20.693Z,4.20
2022-12-29T03:15:22.019Z,5.20
2022-12-29T03:18:23.330Z,4.50
2022-12-29T03:21:24.697Z,4.90
2022-12-29T03:24:26.008Z,4.28
2022-12-29T03:27:27.298Z,4.80
2022-12-29T03:30:28.777Z,4.97
2022-12-29T03:33:30.089Z,4.28
2022-12-29T03:36:31.397Z,5.03
2022-12-29T03:39:32.674Z,4.30
2022-12-29T03:42:33.994Z,4.68
2022-12-29T03:45:36.207Z,4.33
2022-12-29T03:48:37.488Z,4.07
2022-12-29T03:51:38.816Z,4.57
2022-12-29T03:54:40.121Z,4.65
2022-12-29T03:57:41.427Z,4.22
2022-12-29T04:00:42.717Z,4.27
2022-12-29T04:03:44.067Z,4.35
2022-12-29T04:06:45.407Z,4.85
2022-12-29T04:09:46.720Z,4.00
2022-12-29T04:12:48.049Z,4.15
2022-12-29T04:15:49.444Z,4.40
2022-12-29T04:18:50.845Z,4.78
2022-12-29T04:21:52.151Z,4.22
2022-12-29T04:24:53.467Z,3.78
2022-12-29T04:27:54.978Z,4.07
2022-12-29T04:30:56.359Z,3.67
2022-12-29T04:33:57.707Z,4.22
2022-12-29T04:36:59.021Z,4.22
2022-12-29T04:40:00.320Z,3.70
2022-12-29T04:43:01.598Z,4.35
2022-12-29T04:46:03.049Z,4.47
2022-12-29T04:49:04.407Z,4.30
2022-12-29T04:52:05.697Z,3.97
2022-12-29T04:55:07.035Z,4.38
2022-12-29T04:58:08.791Z,4.30
2022-12-29T05:01:10.089Z,4.27
2022-12-29T05:04:11.396Z,3.83
2022-12-29T05:07:12.730Z,3.88
2022-12-29T05:10:14.059Z,3.97
2022-12-29T05:13:15.704Z,3.90
2022-12-29T05:16:17.115Z,4.60
2022-12-29T05:19:18.819Z,4.95
2022-12-29T05:22:20.137Z,4.78
2022-12-29T05:25:21.434Z,4.38
2022-12-29T05:28:22.739Z,5.18
2022-12-29T05:31:24.087Z,4.90
2022-12-29T05:34:25.432Z,5.15
2022-12-29T05:37:26.732Z,5.40
2022-12-29T05:40:28.044Z,5.40
2022-12-29T05:43:29.366Z,5.28
2022-12-29T05:46:30.731Z,5.90
2022-12-29T05:49:32.040Z,5.50
2022-12-29T05:52:33.360Z,5.47
2022-12-29T05:55:34.827Z,5.22
2022-12-29T05:58:36.160Z,5.25
2022-12-29T06:01:37.633Z,4.70
2022-12-29T06:04:38.962Z,4.32
2022-12-29T06:07:40.252Z,5.22
2022-12-29T06:10:41.562Z,5.05
2022-12-29T06:13:42.882Z,5.63
2022-12-29T06:16:44.266Z,4.90
2022-12-29T06:19:45.643Z,5.35
2022-12-29T06:22:47.065Z,5.13
2022-12-29T06:25:48.374Z,5.40
2022-12-29T06:28:49.684Z,5.10
2022-12-29T06:31:51.001Z,5.00
2022-12-29T06:34:52.318Z,5.10
2022-12-29T06:37:53.594Z,5.15
2022-12-29T06:40:54.897Z,4.88
2022-12-29T06:43:56.188Z,5.32
2022-12-29T06:46:57.494Z,5.47
2022-12-29T06:49:58.770Z,4.60
2022-12-29T06:53:00.092Z,5.00
2022-12-29T06:56:01.378Z,5.32
2022-12-29T06:59:02.689Z,5.10
2022-12-29T07:02:04.093Z,4.63
2022-12-29T07:05:05.539Z,4.93
2022-12-29T07:08:06.851Z,5.47
2022-12-29T07:11:08.559Z,4.97
2022-12-29T07:14:09.862Z,5.45
2022-12-29T07:17:11.312Z,5.17
2022-12-29T07:20:12.668Z,4.88
2022-12-29T07:23:13.977Z,4.65
2022-12-29T07:26:15.257Z,4.82
2022-12-29T07:29:16.573Z,5.55
2022-12-29T07:32:17.991Z,5.20
2022-12-29T07:35:19.378Z,4.95
2022-12-29T07:38:20.676Z,5.35
2022-12-29T07:41:22.091Z,4.97
2022-12-29T07:44:23.441Z,5.22
2022-12-29T07:47:24.777Z,4.90
2022-12-29T07:50:26.064Z,4.45
2022-12-29T07:53:27.374Z,5.03
2022-12-29T07:56:28.648Z,5.18
2022-12-29T07:59:29.950Z,4.93
2022-12-29T08:02:31.385Z,5.47
2022-12-29T08:05:32.730Z,4.78
2022-12-29T08:08:34.047Z,5.53
2022-12-29T08:11:35.328Z,4.63
2022-12-29T08:14:36.631Z,5.22
2022-12-29T08:17:37.927Z,4.83
2022-12-29T08:20:39.262Z,4.88
2022-12-29T08:23:40.565Z,5.32
2022-12-29T08:26:41.888Z,4.68
2022-12-29T08:29:43.202Z,4.57
2022-12-29T08:32:44.498Z,4.73
2022-12-29T08:35:45.797Z,4.72
2022-12-29T08:38:47.103Z,5.03
2022-12-29T08:41:48.472Z,5.03
2022-12-29T08:44:49.782Z,5.55
2022-12-29T08:47:51.092Z,4.30
2022-12-29T08:50:52.381Z,4.78
2022-12-29T08:53:53.690Z,5.75
2022-12-29T08:56:55.066Z,4.85
2022-12-29T08:59:56.366Z,5.20
2022-12-29T09:02:57.864Z,5.37
2022-12-29T09:05:59.336Z,5.30
2022-12-29T09:09:00.637Z,4.18
2022-12-29T09:12:01.982Z,5.05
2022-12-29T09:15:03.291Z,4.90
2022-12-29T09:18:04.610Z,4.93
2022-12-29T09:21:05.932Z,4.75
2022-12-29T09:24:07.247Z,5.78
2022-12-29T09:27:08.553Z,5.60
2022-12-29T09:30:09.873Z,5.13
2022-12-29T09:33:11.191Z,5.03
2022-12-29T09:36:12.516Z,5.00
2022-12-29T09:39:14.077Z,5.38
2022-12-29T09:42:15.392Z,5.00
2022-12-29T09:45:16.829Z,5.15
2022-12-29T09:48:18.172Z,4.73
2022-12-29T09:51:19.472Z,4.38
2022-12-29T09:54:20.804Z,4.80
2022-12-29T09:57:22.118Z,4.95
2022-12-29T10:00:23.483Z,5.13
2022-12-29T10:03:24.882Z,5.17
2022-12-29T10:06:26.220Z,5.40
2022-12-29T10:09:28.029Z,5.45
2022-12-29T10:12:29.348Z,5.68
2022-12-29T10:15:30.657Z,5.93
2022-12-29T10:18:31.960Z,5.60
2022-12-29T10:21:33.387Z,5.60
2022-12-29T10:24:34.699Z,5.80
2022-12-29T10:27:36.002Z,6.00
2022-12-29T10:30:37.306Z,5.63
2022-12-29T10:33:38.610Z,5.43
2022-12-29T10:36:39.923Z,5.45
2022-12-29T10:39:41.225Z,5.13
2022-12-29T10:42:42.560Z,4.80
2022-12-29T10:45:43.907Z,5.13
2022-12-29T10:48:45.280Z,5.10
2022-12-29T10:51:46.582Z,4.95
2022-12-29T10:54:47.906Z,5.13
2022-12-29T10:57:49.211Z,4.93
2022-12-29T11:00:50.609Z,4.88
2022-12-29T11:03:51.938Z,4.90
2022-12-29T11:06:53.267Z,4.88
2022-12-29T11:09:54.603Z,5.35
2022-12-29T11:12:55.945Z,4.78
2022-12-29T11:15:57.235Z,5.53
2022-12-29T11:18:58.553Z,5.00
2022-12-29T11:21:59.833Z,4.78
2022-12-29T11:25:01.145Z,4.75
2022-12-29T11:28:02.469Z,4.78
2022-12-29T11:31:03.778Z,5.13
2022-12-29T11:34:05.089Z,4.67
2022-12-29T11:37:06.395Z,4.85
2022-12-29T11:40:07.717Z,4.88
2022-12-29T11:43:09.013Z,4.72
2022-12-29T11:46:10.386Z,5.10
2022-12-29T11:49:11.758Z,5.23
2022-12-29T11:52:13.060Z,4.78
2022-12-29T11:55:14.371Z,4.82
2022-12-29T11:58:15.720Z,4.70
2022-12-29T12:01:17.049Z,4.88
2022-12-29T12:04:18.397Z,4.40
2022-12-29T12:07:19.813Z,5.03
2022-12-29T12:10:21.093Z,4.55
2022-12-29T12:13:22.436Z,4.65
2022-12-29T12:16:23.788Z,4.85
2022-12-29T12:19:25.118Z,4.70
2022-12-29T12:22:26.447Z,4.90
2022-12-29T12:25:27.913Z,5.00
2022-12-29T12:28:34.748Z,4.78
2022-12-29T12:31:37.858Z,5.05
2022-12-29T12:34:39.207Z,4.53
2022-12-29T12:37:40.543Z,4.63
2022-12-29T12:40:41.864Z,4.90
2022-12-29T12:43:43.229Z,5.10
2022-12-29T12:46:44.583Z,5.00
2022-12-29T12:49:45.974Z,4.40
2022-12-29T12:52:47.329Z,4.55
2022-12-29T12:55:48.689Z,4.57
2022-12-29T12:58:50.093Z,5.05
2022-12-29T13:01:51.512Z,4.93
2022-12-29T13:04:52.926Z,4.90
2022-12-29T13:07:54.230Z,4.80
2022-12-29T13:10:55.520Z,5.35
2022-12-29T13:13:56.889Z,5.28
2022-12-29T13:16:58.236Z,4.75
2022-12-29T13:19:59.553Z,5.00
2022-12-29T13:23:00.868Z,5.03
2022-12-29T13:26:02.190Z,5.35
2022-12-29T13:29:03.507Z,4.55
2022-12-29T13:32:04.813Z,5.30
2022-12-29T13:35:06.137Z,4.57
2022-12-29T13:38:07.477Z,4.60
2022-12-29T13:41:08.786Z,4.90
2022-12-29T13:44:10.134Z,5.05
2022-12-29T13:47:11.461Z,4.82
2022-12-29T13:50:12.762Z,4.80
2022-12-29T13:53:14.056Z,4.90
2022-12-29T13:56:15.358Z,5.32
2022-12-29T13:59:16.696Z,4.88
2022-12-29T14:02:18.268Z,5.43
2022-12-29T14:05:19.693Z,4.60
2022-12-29T14:08:21.021Z,4.25
2022-12-29T14:11:22.324Z,4.85
2022-12-29T14:14:23.626Z,4.47
2022-12-29T14:17:24.926Z,5.03
2022-12-29T14:20:26.244Z,4.17
2022-12-29T14:23:27.528Z,4.65
2022-12-29T14:26:28.839Z,4.90
2022-12-29T14:29:30.136Z,4.13
2022-12-29T14:32:31.432Z,4.60
2022-12-29T14:35:32.742Z,4.70
2022-12-29T14:38:34.054Z,4.72
2022-12-29T14:41:35.378Z,4.97
2022-12-29T14:44:36.679Z,4.78
2022-12-29T14:47:37.981Z,4.55
2022-12-29T14:50:39.334Z,4.30
2022-12-29T14:53:40.624Z,4.60
2022-12-29T14:56:41.932Z,5.18
2022-12-29T14:59:43.210Z,4.10
2022-12-29T15:02:44.725Z,4.72
2022-12-29T15:05:46.164Z,4.43
2022-12-29T15:08:47.458Z,4.68
2022-12-29T15:11:48.760Z,5.30
2022-12-29T15:14:50.069Z,4.78
2022-12-29T15:17:51.409Z,4.90
2022-12-29T15:20:52.727Z,4.30
2022-12-29T15:23:54.070Z,4.47
2022-12-29T15:26:55.391Z,4.40
2022-12-29T15:29:56.683Z,4.50
2022-12-29T15:32:57.982Z,4.25
2022-12-29T15:35:59.315Z,4.40
2022-12-29T15:39:00.812Z,4.47
2022-12-29T15:42:02.173Z,4.60
2022-12-29T15:45:10.883Z,5.03
2022-12-29T15:48:12.819Z,4.50
2022-12-29T15:51:14.143Z,4.83
2022-12-29T15:54:15.464Z,4.47
2022-12-29T15:57:16.761Z,4.72
2022-12-29T16:00:18.089Z,5.55
2022-12-29T16:03:19.459Z,4.47
2022-12-29T16:06:20.868Z,5.37
2022-12-29T16:09:22.183Z,5.20
2022-12-29T16:12:23.506Z,5.80
2022-12-29T16:15:24.785Z,5.53
2022-12-29T16:18:26.090Z,6.07
2022-12-29T16:21:27.414Z,5.87
2022-12-29T16:24:28.711Z,6.35
2022-12-29T16:27:30.027Z,6.72
2022-12-29T16:30:34.167Z,6.80
2022-12-29T16:33:35.657Z,7.05
2022-12-29T16:36:36.977Z,7.20
2022-12-29T16:39:38.301Z,6.78
2022-12-29T16:42:39.601Z,6.38
2022-12-29T16:45:40.966Z,7.50
2022-12-29T16:48:42.311Z,6.38
2022-12-29T16:51:43.632Z,6.23
2022-12-29T16:54:44.927Z,6.53
2022-12-29T16:57:46.255Z,6.35
2022-12-29T17:00:47.574Z,6.03
2022-12-29T17:03:49.070Z,5.93
2022-12-29T17:06:50.392Z,5.93
2022-12-29T17:09:51.716Z,5.50
2022-12-29T17:12:53.026Z,6.03
2022-12-29T17:15:54.382Z,6.22
2022-12-29T17:18:55.740Z,6.07
2022-12-29T17:21:57.038Z,6.20
2022-12-29T17:24:58.367Z,5.60
2022-12-29T17:27:59.702Z,5.85
2022-12-29T17:31:01.045Z,5.50
2022-12-29T17:34:02.424Z,5.95
2022-12-29T17:37:03.750Z,5.50
2022-12-29T17:40:05.070Z,5.65
2022-12-29T17:43:06.359Z,6.13
2022-12-29T17:46:07.759Z,5.70
2022-12-29T17:49:09.136Z,6.00
2022-12-29T17:52:10.430Z,5.60
2022-12-29T17:55:11.734Z,5.57
2022-12-29T17:58:13.014Z,5.65
2022-12-29T18:01:14.381Z,5.53
2022-12-29T18:04:15.779Z,5.10
2022-12-29T18:07:17.123Z,5.17
2022-12-29T18:10:18.431Z,5.28
2022-12-29T18:13:19.753Z,5.60
2022-12-29T18:16:21.065Z,5.05
2022-12-29T18:19:22.398Z,5.57
2022-12-29T18:22:23.705Z,5.40
2022-12-29T18:25:25.035Z,5.05
2022-12-29T18:28:26.351Z,5.80
2022-12-29T18:31:27.887Z,5.75
2022-12-29T18:34:29.257Z,6.18
2022-12-29T18:37:30.861Z,5.40
2022-12-29T18:40:32.214Z,6.15
2022-12-29T18:43:33.737Z,5.57
2022-12-29T18:46:35.408Z,5.50
2022-12-29T18:49:37.060Z,5.55
2022-12-29T18:52:38.477Z,5.33
2022-12-29T18:55:39.768Z,5.40
2022-12-29T18:58:41.078Z,6.00
2022-12-29T19:01:42.481Z,6.00
2022-12-29T19:04:43.861Z,5.65
2022-12-29T19:07:45.277Z,5.33
2022-12-29T19:10:46.611Z,5.22
2022-12-29T19:13:48.141Z,5.57
2022-12-29T19:16:49.532Z,5.43
2022-12-29T19:19:50.818Z,5.80
2022-12-29T19:22:52.138Z,5.77
2022-12-29T19:25:53.686Z,5.63
2022-12-29T19:28:55.072Z,5.90
2022-12-29T19:31:56.621Z,5.65
2022-12-29T19:34:58.036Z,5.60
2022-12-29T19:37:59.380Z,5.17
2022-12-29T19:41:00.708Z,5.88
2022-12-29T19:44:02.023Z,5.47
2022-12-29T19:47:03.385Z,5.32
2022-12-29T19:50:04.707Z,5.22
2022-12-29T19:53:06.093Z,5.13
2022-12-29T19:56:07.429Z,5.45
2022-12-29T19:59:08.736Z,5.40
2022-12-29T20:02:10.237Z,5.45
2022-12-29T20:05:11.560Z,5.30
2022-12-29T20:08:12.869Z,5.73
2022-12-29T20:11:14.169Z,5.38
2022-12-29T20:14:15.498Z,5.70
2022-12-29T20:17:27.247Z,5.85
2022-12-29T20:20:38.089Z,5.30
2022-12-29T20:23:39.403Z,5.40
2022-12-29T20:26:40.675Z,5.20
2022-12-29T20:29:41.985Z,4.85
2022-12-29T20:32:43.279Z,4.93
2022-12-29T20:35:44.577Z,5.03
2022-12-29T20:38:46.064Z,5.40
2022-12-29T20:41:47.433Z,5.85
2022-12-29T20:44:48.745Z,5.20
2022-12-29T20:47:50.066Z,4.93
2022-12-29T20:50:51.375Z,5.68
2022-12-29T20:53:52.668Z,5.30
2022-12-29T20:56:53.982Z,5.40
2022-12-29T20:59:55.287Z,4.90
2022-12-29T21:02:56.694Z,5.30
2022-12-29T21:05:58.060Z,5.22
2022-12-29T21:08:59.384Z,5.20
2022-12-29T21:12:00.760Z,4.53
2022-12-29T21:15:02.056Z,4.60
2022-12-29T21:18:03.370Z,4.40
2022-12-29T21:21:04.662Z,5.05
2022-12-29T21:24:05.979Z,4.53
2022-12-29T21:27:07.288Z,4.18
2022-12-29T21:30:08.616Z,5.00
2022-12-29T21:33:09.930Z,4.93
2022-12-29T21:36:11.297Z,4.18
2022-12-29T21:39:12.594Z,4.97
2022-12-29T21:42:13.906Z,4.22
2022-12-29T21:45:20.181Z,4.57
2022-12-29T21:48:22.251Z,4.20
2022-12-29T21:51:29.963Z,4.40
2022-12-29T21:54:31.846Z,4.47
2022-12-29T21:57:33.147Z,4.25
2022-12-29T22:00:36.523Z,4.10
2022-12-29T22:03:37.891Z,4.00
2022-12-29T22:06:39.224Z,4.18
2022-12-29T22:09:43.781Z,3.80
2022-12-29T22:12:45.494Z,4.40
2022-12-29T22:15:46.851Z,4.00
2022-12-29T22:18:48.206Z,3.75
2022-12-29T22:21:49.503Z,4.22
2022-12-29T22:24:50.830Z,3.47
2022-12-29T22:27:58.629Z,3.70
2022-12-29T22:31:00.486Z,3.78
2022-12-29T22:34:01.832Z,3.97
2022-12-29T22:37:03.141Z,4.30
2022-12-29T22:40:04.432Z,3.63
2022-12-29T22:43:12.753Z,3.72
2022-12-29T22:46:14.496Z,3.70
2022-12-29T22:49:15.836Z,3.92
2022-12-29T22:52:17.154Z,3.88
2022-12-29T22:55:18.442Z,3.07
2022-12-29T22:58:19.767Z,3.40
2022-12-29T23:01:21.216Z,3.70
2022-12-29T23:07:44.003Z,3.70
2022-12-29T23:10:45.315Z,3.57
2022-12-29T23:13:46.617Z,3.15
2022-12-29T23:16:47.924Z,4.10
2022-12-29T23:19:49.230Z,3.13
2022-12-29T23:22:50.547Z,3.38
2022-12-29T23:25:51.866Z,3.57
2022-12-29T23:28:59.536Z,2.88
2022-12-29T23:32:01.412Z,3.30
2022-12-29T23:35:02.719Z,2.70
2022-12-29T23:38:04.150Z,3.33
2022-12-29T23:41:05.435Z,3.10
2022-12-29T23:44:06.743Z,2.92
2022-12-29T23:47:08.082Z,3.50
2022-12-29T23:50:09.401Z,2.90
2022-12-29T23:53:10.737Z,3.13
2022-12-29T23:56:12.035Z,3.27
2022-12-29T23:59:13.369Z,2.95
